Portada
METAR-TAF:

METAR-TAF

Aeroports :

Batam, Indonèsia

latitud: 01-07-15N, longitud: 104-07-07E, altitud: 38 m

Observació

L'informe es va fer fa 9 hores i 16 minuts, a les 12:30 UTC
Vent 6 kt del Oest
Temperatura 26°C
Humitat 100%
Pressió 1013 hPa
Visibilitat: 8000 m
Escasses núvols a una alçada de 1300 ft, Cumulonimbus.
Cel ennuvolat a una alçada de 1400 ft
tempesta, pluja

METAR: WIDD 261230Z 28006KT 8000 -TSRA FEW013CB BKN014 26/26 Q1013 BECMG FM1330 9999 NSW RMK CB TO N, SE

Hora: 04:46 (21:46 UTC)

Pronòstic

L'informe es va fer fa 4 hores i 46 minuts, a les 17:00 UTC
Pronòstic vàlid del 26 a les 18 UTC al 27 a les 18 UTC
Vent 5 kt del Oest/Nord-Oest
Visibilitat: 1000 m
Escasses núvols a una alçada de 1300 ft, Cumulonimbus.
tempesta, pluja
Evolucionant progressivament
l' 26 a les 19 UTC al 26 a les 21 UTC
Vent kt del Nord
Visibilitat: 7000 m
Escasses núvols a una alçada de 1400 ft

TAF: WIDD 261700Z 2618/2718 30005KT 1000 TSRA FEW013CB BECMG 2619/2621 00000KT 7000 NSW FEW014

Observacions i pronòstics meteorològics de més de 4000 aeroports (METAR i TAF).

Les estacions disponibles són els punts grocs i vermells al mapa.

Posi el ratolí al punt desitjat per veure el nom de l'estació.

Feu clic per veure les observacions i els pronòstics meteorològics.

Per canviar el mapa: feu clic els botons verds amb una creu de color negre per apropar; al botó verd amb un guió per allunyar la imatge; o en les fletxes verdes per a mapes adjacents.


METAR-TAF: